createdAt,value
2022-10-19T00:02:20.292Z,97924.75
2022-10-19T00:04:46.976Z,97926.06
2022-10-19T00:07:13.734Z,97923.19
2022-10-19T00:09:40.407Z,97913.47
2022-10-19T00:12:07.140Z,97912.03
2022-10-19T00:14:33.838Z,97914.06
2022-10-19T00:17:00.588Z,97918.75
2022-10-19T00:19:27.986Z,97911.81
2022-10-19T00:21:55.587Z,97919.97
2022-10-19T00:24:22.592Z,97919.13
2022-10-19T00:26:49.612Z,97929.47
2022-10-19T00:29:16.712Z,97915.53
2022-10-19T00:31:43.615Z,97924.41
2022-10-19T00:34:10.567Z,97916.75
2022-10-19T00:36:40.219Z,97929.69
2022-10-19T00:39:11.068Z,97917.94
2022-10-19T00:41:38.680Z,97910.25
2022-10-19T00:44:34.405Z,97909.53
2022-10-19T00:47:05.626Z,97905.19
2022-10-19T00:49:36.703Z,97912.03
2022-10-19T00:52:13.401Z,97894.75
2022-10-19T00:54:41.666Z,97890.53
2022-10-19T00:57:08.659Z,97904.94
2022-10-19T00:59:36.481Z,97903.38
2022-10-19T01:02:04.865Z,97890.31
2022-10-19T01:04:33.628Z,97890.19
2022-10-19T01:07:00.495Z,97887.44
2022-10-19T01:09:27.276Z,97884.69
2022-10-19T01:12:11.471Z,97900.53
2022-10-19T01:15:06.052Z,97903.16
2022-10-19T01:17:35.614Z,97903.03
2022-10-19T01:20:21.376Z,97904.94
2022-10-19T01:23:20.056Z,97899.41
2022-10-19T01:25:52.667Z,97888.88
2022-10-19T01:28:38.271Z,97894.41
2022-10-19T01:31:24.310Z,97890.16
2022-10-19T01:34:00.373Z,97884.53
2022-10-19T01:36:35.908Z,97891.38
2022-10-19T01:39:09.225Z,97886.47
2022-10-19T01:41:58.190Z,97881.69
2022-10-19T01:44:36.108Z,97880.22
2022-10-19T01:47:05.866Z,97871.09
2022-10-19T01:49:48.409Z,97873.88
2022-10-19T01:52:17.685Z,97880.00
2022-10-19T01:54:49.791Z,97875.81
2022-10-19T01:57:21.690Z,97869.53
2022-10-19T01:59:49.503Z,97868.81
2022-10-19T02:02:17.263Z,97868.72
2022-10-19T02:04:44.777Z,97863.19
2022-10-19T02:07:11.759Z,97857.66
2022-10-19T02:09:38.465Z,97853.47
2022-10-19T02:12:09.145Z,97848.53
2022-10-19T02:14:40.684Z,97857.44
2022-10-19T02:17:14.304Z,97848.44
2022-10-19T02:19:42.522Z,97851.91
2022-10-19T02:22:10.125Z,97840.75
2022-10-19T02:24:36.851Z,97840.75
2022-10-19T02:27:05.953Z,97839.31
2022-10-19T02:29:33.585Z,97830.34
2022-10-19T02:32:01.016Z,97823.34
2022-10-19T02:34:27.909Z,97814.34
2022-10-19T02:36:55.074Z,97821.19
2022-10-19T02:39:22.104Z,97819.16
2022-10-19T02:42:03.468Z,97821.09
2022-10-19T02:44:36.952Z,97821.81
2022-10-19T02:47:11.499Z,97821.09
2022-10-19T02:49:39.211Z,97826.59
2022-10-19T02:52:08.743Z,97809.91
2022-10-19T02:54:35.943Z,97814.72
2022-10-19T02:57:04.960Z,97816.03
2022-10-19T02:59:31.676Z,97814.72
2022-10-19T03:01:58.306Z,97809.22
2022-10-19T03:04:25.032Z,97807.16
2022-10-19T03:06:51.671Z,97801.53
2022-10-19T03:09:18.627Z,97801.53
2022-10-19T03:11:45.291Z,97796.75
2022-10-19T03:14:12.049Z,97793.25
2022-10-19T03:16:38.697Z,97792.53
2022-10-19T03:19:05.455Z,97793.13
2022-10-19T03:21:34.126Z,97784.84
2022-10-19T03:24:01.148Z,97787.59
2022-10-19T03:26:27.849Z,97794.44
2022-10-19T03:28:54.565Z,97795.78
2022-10-19T03:31:21.351Z,97796.50
2022-10-19T03:33:48.063Z,97793.00
2022-10-19T03:36:28.884Z,97784.03
2022-10-19T03:38:57.712Z,97791.59
2022-10-19T03:41:26.686Z,97801.19
2022-10-19T03:43:53.688Z,97794.22
2022-10-19T03:46:21.136Z,97799.75
2022-10-19T03:48:48.112Z,97797.56
2022-10-19T03:51:16.998Z,97793.38
2022-10-19T03:53:44.663Z,97791.22
2022-10-19T03:56:16.349Z,97790.63
2022-10-19T03:58:44.756Z,97791.22
2022-10-19T04:01:20.516Z,97787.03
2022-10-19T04:03:47.485Z,97782.94
2022-10-19T04:06:19.593Z,97782.22
2022-10-19T04:08:49.929Z,97785.00
2022-10-19T04:11:18.310Z,97784.84
2022-10-19T04:13:45.034Z,97776.59
2022-10-19T04:16:13.795Z,97778.63
2022-10-19T04:18:40.472Z,97780.66
2022-10-19T04:21:07.235Z,97780.66
2022-10-19T04:23:36.206Z,97774.31
2022-10-19T04:26:05.804Z,97770.84
2022-10-19T04:28:33.669Z,97772.84
2022-10-19T04:31:07.239Z,97774.78
2022-10-19T04:33:34.888Z,97777.56
2022-10-19T04:36:06.738Z,97780.19
2022-10-19T04:38:34.166Z,97769.88
2022-10-19T04:41:05.801Z,97778.72
2022-10-19T04:43:32.764Z,97783.53
2022-10-19T04:46:10.975Z,97780.66
2022-10-19T04:48:38.461Z,97781.38
2022-10-19T04:51:05.863Z,97775.75
2022-10-19T04:53:33.678Z,97779.09
2022-10-19T04:56:00.604Z,97782.56
2022-10-19T04:58:27.410Z,97777.78
2022-10-19T05:00:54.178Z,97778.38
2022-10-19T05:03:20.930Z,97773.47
2022-10-19T05:05:47.557Z,97772.75
2022-10-19T05:08:14.423Z,97775.38
2022-10-19T05:10:44.252Z,97770.59
2022-10-19T05:13:13.675Z,97765.09
2022-10-19T05:15:40.354Z,97762.91
2022-10-19T05:18:07.092Z,97761.47
2022-10-19T05:20:33.808Z,97762.78
2022-10-19T05:23:04.704Z,97765.56
2022-10-19T05:25:34.075Z,97756.44
2022-10-19T05:28:00.934Z,97755.72
2022-10-19T05:30:27.672Z,97753.56
2022-10-19T05:32:54.345Z,97741.09
2022-10-19T05:35:22.627Z,97747.94
2022-10-19T05:37:54.460Z,97743.59
2022-10-19T05:40:21.243Z,97738.31
2022-10-19T05:42:47.912Z,97736.56
2022-10-19T05:45:14.776Z,97738.28
2022-10-19T05:47:41.462Z,97740.38
2022-10-19T05:50:08.756Z,97731.41
2022-10-19T05:52:35.430Z,97740.09
2022-10-19T05:55:03.061Z,97730.84
2022-10-19T05:57:32.160Z,97736.88
2022-10-19T05:59:59.453Z,97732.72
2022-10-19T06:02:26.218Z,97731.84
2022-10-19T06:04:53.040Z,97730.31
2022-10-19T06:07:19.748Z,97737.13
2022-10-19T06:09:46.621Z,97728.88
2022-10-19T06:12:15.744Z,97732.66
2022-10-19T06:14:43.248Z,97725.16
2022-10-19T06:17:10.789Z,97730.50
2022-10-19T06:19:37.675Z,97735.25
2022-10-19T06:22:04.407Z,97731.22
2022-10-19T06:24:31.265Z,97721.81
2022-10-19T06:26:57.932Z,97724.44
2022-10-19T06:29:24.667Z,97726.63
2022-10-19T06:31:52.138Z,97722.28
2022-10-19T06:34:18.946Z,97732.97
2022-10-19T06:36:46.203Z,97731.34
2022-10-19T06:39:13.008Z,97724.97
2022-10-19T06:41:39.636Z,97736.94
2022-10-19T06:44:18.158Z,97732.59
2022-10-19T06:46:44.881Z,97734.78
2022-10-19T06:49:13.334Z,97737.66
2022-10-19T06:51:40.744Z,97739.66
2022-10-19T06:54:07.965Z,97742.69
2022-10-19T06:56:34.732Z,97743.69
2022-10-19T06:59:01.844Z,97744.53
2022-10-19T07:01:28.872Z,97738.00
2022-10-19T07:03:55.697Z,97741.16
2022-10-19T07:06:22.650Z,97737.25
2022-10-19T07:08:49.309Z,97734.91
2022-10-19T07:11:19.132Z,97739.75
2022-10-19T07:13:47.023Z,97742.06
2022-10-19T07:16:19.518Z,97741.72
2022-10-19T07:18:52.191Z,97742.13
2022-10-19T07:21:19.109Z,97733.03
2022-10-19T07:23:47.273Z,97735.88
2022-10-19T07:26:15.810Z,97738.06
2022-10-19T07:28:42.991Z,97746.00
2022-10-19T07:31:10.801Z,97742.56
2022-10-19T07:33:37.605Z,97738.75
2022-10-19T07:36:09.998Z,97733.50
2022-10-19T07:38:36.722Z,97740.38
2022-10-19T07:41:07.111Z,97733.44
2022-10-19T07:43:34.062Z,97741.50
2022-10-19T07:46:01.344Z,97740.91
2022-10-19T07:48:28.042Z,97735.31
2022-10-19T07:50:55.275Z,97734.72
2022-10-19T07:53:22.147Z,97731.16
2022-10-19T07:55:49.270Z,97737.72
2022-10-19T07:58:16.025Z,97733.06
2022-10-19T08:00:42.684Z,97733.91
2022-10-19T08:03:43.638Z,97734.75
2022-10-19T08:06:26.111Z,97734.88
2022-10-19T08:08:52.977Z,97731.75
2022-10-19T08:11:20.792Z,97728.63
2022-10-19T08:13:47.691Z,97728.25
2022-10-19T08:16:21.365Z,97730.63
2022-10-19T08:18:48.114Z,97728.25
2022-10-19T08:21:14.625Z,97727.88
2022-10-19T08:23:41.485Z,97724.75
2022-10-19T08:26:08.065Z,97722.09
2022-10-19T08:28:34.653Z,97727.38
2022-10-19T08:31:09.154Z,97718.88
2022-10-19T08:33:35.748Z,97725.53
2022-10-19T08:36:04.610Z,97724.44
2022-10-19T08:38:31.224Z,97720.59
2022-10-19T08:40:58.069Z,97713.53
2022-10-19T08:43:30.306Z,97717.44
2022-10-19T08:46:12.744Z,97715.94
2022-10-19T08:48:43.055Z,97716.31
2022-10-19T08:51:10.362Z,97709.69
2022-10-19T08:53:43.730Z,97708.28
2022-10-19T08:56:22.193Z,97706.06
2022-10-19T08:58:59.091Z,97707.41
2022-10-19T09:01:25.580Z,97708.47
2022-10-19T09:04:12.442Z,97702.44
2022-10-19T09:06:43.351Z,97701.31
2022-10-19T09:09:10.804Z,97691.91
2022-10-19T09:11:38.309Z,97688.13
2022-10-19T09:14:25.186Z,97689.19
2022-10-19T09:16:51.819Z,97691.94
2022-10-19T09:19:22.868Z,97684.06
2022-10-19T09:22:00.981Z,97681.09
2022-10-19T09:24:32.601Z,97678.00
2022-10-19T09:27:00.021Z,97681.91
2022-10-19T09:29:32.433Z,97680.34
2022-10-19T09:31:59.656Z,97664.16
2022-10-19T09:34:27.108Z,97667.22
2022-10-19T09:36:54.350Z,97668.88
2022-10-19T09:39:22.596Z,97664.25
2022-10-19T09:41:54.842Z,97664.41
2022-10-19T09:44:22.387Z,97653.47
2022-10-19T09:46:52.507Z,97653.13
2022-10-19T09:49:19.959Z,97640.41
2022-10-19T09:51:51.777Z,97651.34
2022-10-19T09:54:23.223Z,97645.56
2022-10-19T09:56:53.103Z,97649.94
2022-10-19T09:59:23.684Z,97645.31
2022-10-19T10:02:19.804Z,97636.72
2022-10-19T10:04:56.099Z,97640.50
2022-10-19T10:07:23.507Z,97641.28
2022-10-19T10:09:50.080Z,97631.81
2022-10-19T10:12:16.764Z,97636.22
2022-10-19T10:14:43.800Z,97636.59
2022-10-19T10:17:17.367Z,97630.03
2022-10-19T10:19:51.166Z,97634.44
2022-10-19T10:22:25.594Z,97633.53
2022-10-19T10:24:52.948Z,97634.06
2022-10-19T10:27:30.724Z,97638.72
2022-10-19T10:29:57.509Z,97630.81
2022-10-19T10:32:24.098Z,97633.91
2022-10-19T10:35:01.018Z,97631.56
2022-10-19T10:37:29.951Z,97627.59
2022-10-19T10:39:59.190Z,97627.78
2022-10-19T10:42:29.831Z,97616.91
2022-10-19T10:44:56.534Z,97620.75
2022-10-19T10:47:23.136Z,97619.00
2022-10-19T10:49:53.272Z,97623.00
2022-10-19T10:52:19.896Z,97619.16
2022-10-19T10:55:10.132Z,97612.09
2022-10-19T10:57:38.717Z,97612.00
2022-10-19T11:00:14.174Z,97615.00
2022-10-19T11:02:59.807Z,97607.63
2022-10-19T11:05:33.383Z,97591.75
2022-10-19T11:08:12.426Z,97589.13
2022-10-19T11:10:48.211Z,97588.91
2022-10-19T11:13:16.390Z,97588.69
2022-10-19T11:16:03.227Z,97581.56
2022-10-19T11:18:30.776Z,97586.31
2022-10-19T11:21:07.926Z,97584.63
2022-10-19T11:23:42.450Z,97568.81
2022-10-19T11:26:27.905Z,97565.41
2022-10-19T11:28:59.610Z,97563.41
2022-10-19T11:31:29.828Z,97565.16
2022-10-19T11:34:00.344Z,97555.72
2022-10-19T11:36:33.132Z,97559.34
2022-10-19T11:39:18.336Z,97553.69
2022-10-19T11:41:44.950Z,97553.09
2022-10-19T11:44:15.604Z,97545.59
2022-10-19T11:47:01.201Z,97541.63
2022-10-19T11:49:31.791Z,97536.84
2022-10-19T11:52:01.808Z,97538.31
2022-10-19T11:54:48.690Z,97533.00
2022-10-19T11:57:16.564Z,97536.22
2022-10-19T11:59:46.539Z,97532.19
2022-10-19T12:02:13.231Z,97521.13
2022-10-19T12:04:42.658Z,97518.47
2022-10-19T12:07:27.492Z,97516.31
2022-10-19T12:09:54.107Z,97517.56
2022-10-19T12:12:20.685Z,97522.16
2022-10-19T12:14:55.297Z,97514.28
2022-10-19T12:17:31.504Z,97505.81
2022-10-19T12:20:17.482Z,97505.06
2022-10-19T12:22:46.515Z,97503.66
2022-10-19T12:25:13.594Z,97507.75
2022-10-19T12:27:40.470Z,97496.38
2022-10-19T12:30:20.303Z,97502.50
2022-10-19T12:32:54.318Z,97490.63
2022-10-19T12:35:24.339Z,97496.13
2022-10-19T12:38:11.242Z,97489.13
2022-10-19T12:40:40.544Z,97486.94
2022-10-19T12:43:14.986Z,97482.00
2022-10-19T12:45:43.371Z,97480.47
2022-10-19T12:48:13.009Z,97473.38
2022-10-19T12:50:48.461Z,97479.56
2022-10-19T12:55:59.421Z,97471.38
2022-10-19T12:58:26.003Z,97467.59
2022-10-19T13:00:59.590Z,97463.25
2022-10-19T13:03:29.709Z,97463.78
2022-10-19T13:06:00.525Z,97461.00
2022-10-19T13:08:31.704Z,97459.84
2022-10-19T13:11:07.417Z,97451.75
2022-10-19T13:13:52.315Z,97441.47
2022-10-19T13:16:37.262Z,97444.97
2022-10-19T13:19:29.854Z,97446.38
2022-10-19T13:22:02.261Z,97445.09
2022-10-19T13:24:30.721Z,97443.19
2022-10-19T13:27:03.498Z,97441.00
2022-10-19T13:29:39.287Z,97447.31
2022-10-19T13:32:24.519Z,97446.78
2022-10-19T13:34:51.114Z,97434.16
2022-10-19T13:37:17.795Z,97439.00
2022-10-19T13:39:44.423Z,97438.28
2022-10-19T13:42:23.980Z,97429.47
2022-10-19T13:44:53.020Z,97422.66
2022-10-19T13:47:19.602Z,97433.91
2022-10-19T13:50:04.686Z,97420.66
2022-10-19T13:52:46.679Z,97423.53
2022-10-19T13:55:33.548Z,97421.66
2022-10-19T13:58:18.423Z,97421.75
2022-10-19T14:00:49.912Z,97407.22
2022-10-19T14:03:19.867Z,97408.78
2022-10-19T14:05:46.381Z,97417.19
2022-10-19T14:08:12.983Z,97413.91
2022-10-19T14:13:26.495Z,97403.28
2022-10-19T14:15:54.079Z,97406.13
2022-10-19T14:18:25.197Z,97414.47
2022-10-19T14:20:59.074Z,97406.94
2022-10-19T14:23:27.633Z,97407.72
2022-10-19T14:25:57.375Z,97409.06
2022-10-19T14:28:24.088Z,97409.00
2022-10-19T14:30:54.533Z,97405.88
2022-10-19T14:33:21.178Z,97393.94
2022-10-19T14:35:49.467Z,97395.97
2022-10-19T14:38:17.742Z,97396.56
2022-10-19T14:40:44.307Z,97388.09
2022-10-19T14:43:21.647Z,97393.56
2022-10-19T14:46:06.594Z,97388.59
2022-10-19T14:48:33.970Z,97382.19
2022-10-19T14:51:00.493Z,97383.53
2022-10-19T14:53:33.029Z,97381.97
2022-10-19T14:56:01.835Z,97380.50
2022-10-19T14:58:28.337Z,97376.94
2022-10-19T15:00:54.936Z,97380.44
2022-10-19T15:03:24.411Z,97385.34
2022-10-19T15:05:52.323Z,97377.69
2022-10-19T15:08:28.117Z,97376.13
2022-10-19T15:10:54.710Z,97383.63
2022-10-19T15:13:28.437Z,97374.81
2022-10-19T15:15:55.394Z,97377.13
2022-10-19T15:18:43.972Z,97367.72
2022-10-19T15:21:19.515Z,97370.75
2022-10-19T15:23:50.122Z,97363.50
2022-10-19T15:26:21.378Z,97358.47
2022-10-19T15:28:48.353Z,97357.56
2022-10-19T15:31:24.142Z,97361.56
2022-10-19T15:33:51.654Z,97347.53
2022-10-19T15:36:19.626Z,97348.13
2022-10-19T15:38:47.610Z,97347.34
2022-10-19T15:41:18.264Z,97345.78
2022-10-19T15:44:04.989Z,97333.81
2022-10-19T15:46:32.729Z,97339.16
2022-10-19T15:49:19.575Z,97336.19
2022-10-19T15:51:46.895Z,97338.75
2022-10-19T15:54:17.017Z,97338.72
2022-10-19T15:56:44.799Z,97337.84
2022-10-19T15:59:15.639Z,97334.78
2022-10-19T16:01:42.464Z,97332.88
2022-10-19T16:04:09.261Z,97330.34
2022-10-19T16:06:36.542Z,97336.91
2022-10-19T16:09:03.979Z,97326.28
2022-10-19T16:11:30.752Z,97323.94
2022-10-19T16:13:57.534Z,97332.78
2022-10-19T16:16:25.640Z,97332.44
2022-10-19T16:18:52.532Z,97325.78
2022-10-19T16:21:19.702Z,97322.56
2022-10-19T16:23:46.238Z,97324.16
2022-10-19T16:26:15.579Z,97324.03
2022-10-19T16:28:42.450Z,97321.94
2022-10-19T16:31:09.185Z,97317.72
2022-10-19T16:33:35.736Z,97316.28
2022-10-19T16:36:06.085Z,97314.72
2022-10-19T16:38:33.110Z,97311.28
2022-10-19T16:41:06.615Z,97309.31
2022-10-19T16:43:33.264Z,97317.13
2022-10-19T16:45:59.979Z,97307.28
2022-10-19T16:48:27.170Z,97310.44
2022-10-19T16:51:05.952Z,97315.78
2022-10-19T16:53:33.148Z,97322.91
2022-10-19T16:56:07.491Z,97325.94
2022-10-19T16:58:35.591Z,97325.22
2022-10-19T17:01:14.777Z,97329.13
2022-10-19T17:03:41.880Z,97326.72
2022-10-19T17:06:08.723Z,97323.63
2022-10-19T17:08:37.330Z,97328.44
2022-10-19T17:11:33.254Z,97329.88
2022-10-19T17:14:01.088Z,97328.13
2022-10-19T17:16:28.654Z,97329.91
2022-10-19T17:18:56.240Z,97331.00
2022-10-19T17:21:23.819Z,97334.16
2022-10-19T17:23:57.187Z,97333.00
2022-10-19T17:26:26.947Z,97328.44
2022-10-19T17:28:53.532Z,97335.59
2022-10-19T17:31:20.094Z,97326.75
2022-10-19T17:33:46.764Z,97331.09
2022-10-19T17:36:14.116Z,97331.28
2022-10-19T17:38:40.839Z,97339.78
2022-10-19T17:41:11.560Z,97335.03
2022-10-19T17:43:38.723Z,97337.91
2022-10-19T17:46:05.900Z,97337.34
2022-10-19T17:48:33.435Z,97337.44
2022-10-19T17:51:04.414Z,97332.00
2022-10-19T17:53:31.338Z,97325.84
2022-10-19T17:56:01.992Z,97330.03
2022-10-19T17:58:28.866Z,97325.94
2022-10-19T18:00:55.902Z,97337.06
2022-10-19T18:03:23.654Z,97319.13
2022-10-19T18:06:10.702Z,97319.13
2022-10-19T18:08:41.678Z,97310.09
2022-10-19T18:11:12.431Z,97308.06
2022-10-19T18:13:39.216Z,97308.06
2022-10-19T18:16:06.947Z,97303.97
2022-10-19T18:18:34.362Z,97303.97
2022-10-19T18:21:04.279Z,97310.22
2022-10-19T18:23:30.894Z,97312.97
2022-10-19T18:26:00.691Z,97310.22
2022-10-19T18:28:27.323Z,97310.22
2022-10-19T18:30:53.874Z,97308.78
2022-10-19T18:33:20.606Z,97305.28
2022-10-19T18:35:47.089Z,97304.56
2022-10-19T18:38:13.723Z,97311.47
2022-10-19T18:40:40.285Z,97309.31
2022-10-19T18:43:06.967Z,97303.06
2022-10-19T18:45:33.550Z,97308.59
2022-10-19T18:48:00.563Z,97304.41
2022-10-19T18:50:27.075Z,97302.97
2022-10-19T18:52:53.662Z,97305.03
2022-10-19T18:55:20.280Z,97302.19
2022-10-19T18:57:46.994Z,97294.53
2022-10-19T19:00:13.834Z,97303.44
2022-10-19T19:02:46.847Z,97297.19
2022-10-19T19:05:14.115Z,97299.88
2022-10-19T19:07:40.659Z,97292.22
2022-10-19T19:10:07.383Z,97291.50
2022-10-19T19:12:34.234Z,97291.38
2022-10-19T19:15:01.039Z,97281.66
2022-10-19T19:17:27.549Z,97283.72
2022-10-19T19:19:54.219Z,97281.59
2022-10-19T19:22:20.790Z,97280.16
2022-10-19T19:24:49.182Z,97286.31
2022-10-19T19:27:15.744Z,97273.13
2022-10-19T19:29:42.370Z,97267.56
2022-10-19T19:32:08.894Z,97270.25
2022-10-19T19:34:35.727Z,97257.03
2022-10-19T19:37:04.080Z,97260.44
2022-10-19T19:39:32.142Z,97252.78
2022-10-19T19:41:58.690Z,97249.91
2022-10-19T19:44:29.533Z,97244.38
2022-10-19T19:46:56.715Z,97241.53
2022-10-19T19:49:25.023Z,97242.88
2022-10-19T19:51:52.214Z,97240.63
2022-10-19T19:54:21.907Z,97240.63
2022-10-19T19:56:52.270Z,97239.13
2022-10-19T19:59:19.071Z,97244.56
2022-10-19T20:01:45.735Z,97250.03
2022-10-19T20:04:12.653Z,97250.63
2022-10-19T20:06:39.684Z,97250.56
2022-10-19T20:09:06.678Z,97251.91
2022-10-19T20:11:34.534Z,97249.03
2022-10-19T20:14:02.725Z,97244.84
2022-10-19T20:16:37.166Z,97245.47
2022-10-19T20:19:07.310Z,97243.94
2022-10-19T20:21:34.129Z,97239.75
2022-10-19T20:24:00.716Z,97242.44
2022-10-19T20:26:27.468Z,97236.81
2022-10-19T20:28:54.070Z,97231.28
2022-10-19T20:31:20.786Z,97228.44
2022-10-19T20:33:47.900Z,97220.78
2022-10-19T20:36:18.662Z,97220.66
2022-10-19T20:38:46.186Z,97222.66
2022-10-19T20:41:12.684Z,97224.69
2022-10-19T20:43:39.402Z,97215.59
2022-10-19T20:46:06.714Z,97214.16
2022-10-19T20:48:33.582Z,97214.09
2022-10-19T20:51:12.379Z,97211.94
2022-10-19T20:53:39.175Z,97213.88
2022-10-19T20:56:09.207Z,97218.69
2022-10-19T20:58:37.273Z,97220.03
2022-10-19T21:01:04.574Z,97211.63
2022-10-19T21:03:31.194Z,97209.50
2022-10-19T21:05:57.741Z,97208.06
2022-10-19T21:08:24.490Z,97206.66
2022-10-19T21:10:51.128Z,97210.72
2022-10-19T21:13:17.711Z,97206.56
2022-10-19T21:15:44.604Z,97203.72
2022-10-19T21:18:13.042Z,97209.13
2022-10-19T21:20:41.395Z,97202.19
2022-10-19T21:23:08.019Z,97204.94
2022-10-19T21:25:34.549Z,97203.53
2022-10-19T21:28:01.111Z,97206.91
2022-10-19T21:30:27.907Z,97209.69
2022-10-19T21:32:54.548Z,97208.84
2022-10-19T21:35:21.039Z,97200.47
2022-10-19T21:37:47.563Z,97211.53
2022-10-19T21:40:14.191Z,97198.97
2022-10-19T21:42:40.798Z,97194.06
2022-10-19T21:45:28.650Z,97193.34
2022-10-19T21:47:54.271Z,97189.78
2022-10-19T21:50:20.773Z,97197.34
2022-10-19T21:52:47.358Z,97187.63
2022-10-19T21:55:13.995Z,97200.03
2022-10-19T21:57:40.575Z,97189.59
2022-10-19T22:00:07.279Z,97186.84
2022-10-19T22:02:39.506Z,97188.78
2022-10-19T22:05:06.195Z,97185.31
2022-10-19T22:07:32.888Z,97180.41
2022-10-19T22:09:59.700Z,97179.72
2022-10-19T22:12:26.166Z,97175.53
2022-10-19T22:14:52.811Z,97171.94
2022-10-19T22:17:19.323Z,97169.81
2022-10-19T22:19:45.930Z,97169.09
2022-10-19T22:22:12.485Z,97170.41
2022-10-19T22:24:39.030Z,97164.19
2022-10-19T22:27:05.514Z,97168.91
2022-10-19T22:29:32.145Z,97168.19
2022-10-19T22:31:58.694Z,97166.03
2022-10-19T22:34:25.307Z,97164.53
2022-10-19T22:36:51.851Z,97161.06
2022-10-19T22:39:18.557Z,97158.94
2022-10-19T22:41:45.087Z,97148.47
2022-10-19T22:44:11.804Z,97149.75
2022-10-19T22:46:38.309Z,97146.28
2022-10-19T22:49:05.055Z,97137.88
2022-10-19T22:51:31.723Z,97139.22
2022-10-19T22:53:58.409Z,97135.75
2022-10-19T22:56:24.919Z,97139.13
2022-10-19T22:58:51.659Z,97131.44
2022-10-19T23:01:18.274Z,97136.25
2022-10-19T23:03:44.983Z,97127.91
2022-10-19T23:06:12.940Z,97133.41
2022-10-19T23:08:39.771Z,97129.84
2022-10-19T23:11:06.367Z,97128.41
2022-10-19T23:13:33.086Z,97133.94
2022-10-19T23:15:59.621Z,97133.22
2022-10-19T23:18:26.287Z,97127.63
2022-10-19T23:20:56.210Z,97128.97
2022-10-19T23:23:22.886Z,97122.69
2022-10-19T23:26:03.526Z,97107.47
2022-10-19T23:28:30.543Z,97108.09
2022-10-19T23:30:58.542Z,97112.91
2022-10-19T23:33:25.671Z,97105.97
2022-10-19T23:35:52.236Z,97109.44
2022-10-19T23:38:18.884Z,97110.78
2022-10-19T23:40:45.518Z,97110.78
2022-10-19T23:43:12.127Z,97106.56
2022-10-19T23:45:39.088Z,97103.09
2022-10-19T23:48:05.772Z,97105.78
2022-10-19T23:50:32.274Z,97103.72
2022-10-19T23:52:58.888Z,97098.84
2022-10-19T23:55:25.491Z,97098.13
2022-10-19T23:57:52.079Z,97100.88
